createdAt,value
2019-01-19T00:00:30.700Z,15.53
2019-01-19T00:03:13.443Z,14.83
2019-01-19T00:05:48.611Z,15.93
2019-01-19T00:08:21.089Z,15.53
2019-01-19T00:11:05.609Z,17.30
2019-01-19T00:13:52.595Z,17.03
2019-01-19T00:16:33.753Z,15.70
2019-01-19T00:19:31.822Z,17.43
2019-01-19T00:22:06.900Z,14.43
2019-01-19T00:24:57.308Z,15.27
2019-01-19T00:27:32.336Z,14.67
2019-01-19T00:30:24.468Z,15.10
2019-01-19T00:32:59.536Z,14.67
2019-01-19T00:35:40.883Z,14.53
2019-01-19T00:38:25.328Z,16.00
2019-01-19T00:41:03.379Z,15.47
2019-01-19T00:43:32.717Z,16.00
2019-01-19T00:46:16.794Z,16.93
2019-01-19T00:48:49.157Z,17.13
2019-01-19T00:51:21.523Z,16.40
2019-01-19T00:53:56.664Z,17.70
2019-01-19T00:56:50.353Z,15.73
2019-01-19T00:59:22.719Z,16.60
2019-01-19T01:02:17.534Z,16.23
2019-01-19T01:04:55.914Z,16.93
2019-01-19T01:07:40.217Z,17.87
2019-01-19T01:10:21.055Z,18.00
2019-01-19T01:13:04.994Z,16.30
2019-01-19T01:16:06.281Z,16.00
2019-01-19T01:19:02.901Z,15.90
2019-01-19T01:21:49.918Z,14.87
2019-01-19T01:24:37.166Z,14.37
2019-01-19T01:27:18.800Z,14.47
2019-01-19T01:30:10.617Z,14.37
2019-01-19T01:32:48.818Z,13.83
2019-01-19T01:35:21.194Z,13.80
2019-01-19T01:37:56.565Z,11.90
2019-01-19T01:40:40.797Z,14.53
2019-01-19T01:43:18.863Z,13.77
2019-01-19T01:45:57.477Z,14.03
2019-01-19T01:48:38.631Z,14.07
2019-01-19T01:51:11.007Z,13.83
2019-01-19T01:53:43.380Z,14.13
2019-01-19T01:56:12.934Z,14.60
2019-01-19T01:59:04.903Z,13.97
2019-01-19T02:02:05.748Z,13.27
2019-01-19T02:04:47.042Z,13.27
2019-01-19T02:07:36.213Z,12.30
2019-01-19T02:10:29.559Z,13.67
2019-01-19T02:13:25.990Z,13.57
2019-01-19T02:16:07.263Z,13.20
2019-01-19T02:18:59.223Z,12.63
2019-01-19T02:21:34.315Z,12.70
2019-01-19T02:24:18.795Z,13.90
2019-01-19T02:27:24.458Z,14.10
2019-01-19T02:30:14.500Z,13.40
2019-01-19T02:32:58.101Z,12.43
2019-01-19T02:35:33.258Z,13.47
2019-01-19T02:38:20.366Z,13.20
2019-01-19T02:41:12.367Z,12.90
2019-01-19T02:43:50.847Z,12.17
2019-01-19T02:46:35.176Z,12.00
2019-01-19T02:49:24.107Z,13.47
2019-01-19T02:51:59.040Z,11.90
2019-01-19T02:54:40.272Z,12.50
2019-01-19T02:57:27.477Z,12.83
2019-01-19T03:00:14.717Z,13.30
2019-01-19T03:02:52.788Z,14.03
2019-01-19T03:05:27.889Z,13.70
2019-01-19T03:08:00.276Z,14.30
2019-01-19T03:10:53.892Z,15.53
2019-01-19T03:13:38.019Z,14.50
2019-01-19T03:16:36.993Z,14.97
2019-01-19T03:19:36.637Z,14.07
2019-01-19T03:22:27.059Z,13.93
2019-01-19T03:25:28.065Z,13.67
2019-01-19T03:28:15.536Z,13.23
2019-01-19T03:31:11.876Z,13.40
2019-01-19T03:33:44.252Z,14.70
2019-01-19T03:36:28.387Z,12.07
2019-01-19T03:39:07.091Z,11.93
2019-01-19T03:41:45.215Z,12.17
2019-01-19T03:44:23.263Z,13.03
2019-01-19T03:47:12.081Z,13.13
2019-01-19T03:50:07.247Z,12.00
2019-01-19T03:52:48.697Z,11.43
2019-01-19T03:55:23.927Z,12.10
2019-01-19T03:57:59.001Z,12.37
2019-01-19T04:01:01.383Z,13.60
2019-01-19T04:04:01.115Z,12.53
2019-01-19T04:06:36.254Z,13.43
2019-01-19T04:09:42.020Z,13.13
2019-01-19T04:12:40.160Z,12.33
2019-01-19T04:15:26.938Z,12.07
2019-01-19T04:18:08.154Z,13.30
2019-01-19T04:20:49.369Z,12.70
2019-01-19T04:23:18.470Z,12.57
2019-01-19T04:25:51.228Z,13.23
2019-01-19T04:28:21.224Z,12.50
2019-01-19T04:30:50.345Z,12.07
2019-01-19T04:33:19.454Z,12.33
2019-01-19T04:35:48.570Z,12.13
2019-01-19T04:38:17.683Z,11.33
2019-01-19T04:40:46.787Z,11.60
2019-01-19T04:43:15.909Z,12.47
2019-01-19T04:45:45.051Z,11.07
2019-01-19T04:48:14.876Z,12.07
2019-01-19T04:50:43.998Z,11.73
2019-01-19T04:53:13.108Z,11.47
2019-01-19T04:55:42.221Z,12.30
2019-01-19T04:58:11.359Z,12.53
2019-01-19T05:00:40.482Z,12.47
2019-01-19T05:03:09.583Z,12.77
2019-01-19T05:05:38.713Z,11.77
2019-01-19T05:08:09.447Z,12.40
2019-01-19T05:10:38.580Z,12.83
2019-01-19T05:13:07.691Z,12.60
2019-01-19T05:15:36.786Z,12.40
2019-01-19T05:18:06.544Z,11.83
2019-01-19T05:20:35.649Z,11.40
2019-01-19T05:23:04.757Z,12.10
2019-01-19T05:25:33.872Z,11.83
2019-01-19T05:28:02.983Z,11.23
2019-01-19T05:30:33.066Z,12.57
2019-01-19T05:33:02.187Z,11.67
2019-01-19T05:35:32.367Z,11.07
2019-01-19T05:38:01.928Z,11.67
2019-01-19T05:40:31.376Z,13.40
2019-01-19T05:43:00.482Z,12.40
2019-01-19T05:45:29.600Z,11.93
2019-01-19T05:47:58.723Z,12.03
2019-01-19T05:50:27.833Z,11.90
2019-01-19T05:52:56.944Z,12.43
2019-01-19T05:55:26.056Z,13.20
2019-01-19T05:57:55.163Z,13.50
2019-01-19T06:00:26.320Z,12.50
2019-01-19T06:02:55.497Z,11.93
2019-01-19T06:05:24.609Z,12.37
2019-01-19T06:07:53.718Z,13.40
2019-01-19T06:10:22.864Z,10.97
2019-01-19T06:12:51.978Z,11.80
2019-01-19T06:15:21.093Z,11.97
2019-01-19T06:17:50.205Z,12.57
2019-01-19T06:20:19.305Z,11.53
2019-01-19T06:22:48.456Z,11.00
2019-01-19T06:25:17.558Z,11.03
2019-01-19T06:27:46.678Z,13.03
2019-01-19T06:30:18.678Z,11.80
2019-01-19T06:32:47.868Z,12.10
2019-01-19T06:35:17.172Z,12.20
2019-01-19T06:37:46.293Z,12.77
2019-01-19T06:40:17.031Z,12.53
2019-01-19T06:42:46.217Z,12.17
2019-01-19T06:45:20.263Z,12.07
2019-01-19T06:47:49.374Z,12.50
2019-01-19T06:50:18.486Z,13.00
2019-01-19T06:52:47.610Z,13.23
2019-01-19T06:55:19.348Z,12.77
2019-01-19T06:57:48.462Z,12.40
2019-01-19T07:00:18.202Z,12.50
2019-01-19T07:02:47.319Z,13.30
2019-01-19T07:05:16.434Z,12.40
2019-01-19T07:07:45.549Z,12.83
2019-01-19T07:10:17.194Z,12.43
2019-01-19T07:12:46.333Z,12.73
2019-01-19T07:15:15.456Z,12.07
2019-01-19T07:17:44.582Z,11.80
2019-01-19T07:20:16.292Z,11.90
2019-01-19T07:22:45.410Z,12.47
2019-01-19T07:25:14.510Z,12.37
2019-01-19T07:27:44.635Z,12.33
2019-01-19T07:30:15.513Z,11.27
2019-01-19T07:32:45.354Z,11.20
2019-01-19T07:35:14.911Z,10.70
2019-01-19T07:37:44.033Z,11.27
2019-01-19T07:40:14.978Z,11.40
2019-01-19T07:42:44.907Z,10.73
2019-01-19T07:45:15.155Z,11.90
2019-01-19T07:47:44.949Z,10.97
2019-01-19T07:50:16.091Z,11.40
2019-01-19T07:52:45.357Z,11.53
2019-01-19T07:55:16.003Z,10.80
2019-01-19T07:57:45.197Z,10.97
2019-01-19T08:00:17.164Z,11.43
2019-01-19T08:02:46.295Z,10.97
2019-01-19T08:05:15.418Z,11.10
2019-01-19T08:07:44.529Z,10.83
2019-01-19T08:10:15.889Z,11.57
2019-01-19T08:12:45.002Z,10.63
2019-01-19T08:15:25.648Z,12.07
2019-01-19T08:17:54.782Z,10.50
2019-01-19T08:20:23.932Z,10.63
2019-01-19T08:22:53.086Z,10.80
2019-01-19T08:25:22.300Z,11.23
2019-01-19T08:27:51.443Z,10.90
2019-01-19T08:30:26.238Z,9.83
2019-01-19T08:32:55.348Z,9.93
2019-01-19T08:35:24.618Z,10.60
2019-01-19T08:37:53.729Z,10.80
2019-01-19T08:40:31.118Z,10.23
2019-01-19T08:43:08.027Z,9.53
2019-01-19T08:45:37.196Z,9.67
2019-01-19T08:48:06.472Z,10.77
2019-01-19T08:50:36.542Z,11.07
2019-01-19T08:53:05.654Z,9.37
2019-01-19T08:55:34.750Z,9.57
2019-01-19T08:58:03.866Z,10.23
2019-01-19T09:00:32.972Z,10.63
2019-01-19T09:03:02.098Z,9.90
2019-01-19T09:05:31.203Z,10.20
2019-01-19T09:08:00.327Z,10.27
2019-01-19T09:10:29.428Z,11.00
2019-01-19T09:12:58.547Z,11.07
2019-01-19T09:15:27.646Z,9.97
2019-01-19T09:17:56.769Z,10.40
2019-01-19T09:20:25.884Z,9.23
2019-01-19T09:22:56.631Z,9.60
2019-01-19T09:25:25.728Z,9.23
2019-01-19T09:27:54.832Z,9.53
2019-01-19T09:30:24.505Z,7.87
2019-01-19T09:32:53.682Z,8.17
2019-01-19T09:35:22.861Z,8.17
2019-01-19T09:37:52.051Z,7.80
2019-01-19T09:40:21.152Z,9.00
2019-01-19T09:42:50.343Z,8.53
2019-01-19T09:45:21.065Z,9.47
2019-01-19T09:47:50.178Z,8.10
2019-01-19T09:50:20.714Z,6.63
2019-01-19T09:52:49.816Z,7.43
2019-01-19T09:55:18.912Z,7.47
2019-01-19T09:57:48.011Z,7.87
2019-01-19T10:00:27.547Z,6.47
2019-01-19T10:02:56.670Z,7.07
2019-01-19T10:05:26.913Z,7.63
2019-01-19T10:07:56.018Z,6.80
2019-01-19T10:10:25.123Z,7.30
2019-01-19T10:12:54.222Z,7.17
2019-01-19T10:15:23.581Z,5.73
2019-01-19T10:17:53.647Z,6.10
2019-01-19T10:20:27.540Z,6.60
2019-01-19T10:22:56.690Z,5.70
2019-01-19T10:25:25.829Z,6.47
2019-01-19T10:27:54.936Z,5.73
2019-01-19T10:30:28.105Z,6.07
2019-01-19T10:32:57.231Z,6.13
2019-01-19T10:35:26.330Z,6.70
2019-01-19T10:37:56.548Z,6.30
2019-01-19T10:40:25.934Z,6.53
2019-01-19T10:42:55.052Z,5.97
2019-01-19T10:45:30.397Z,5.80
2019-01-19T10:47:59.569Z,5.30
2019-01-19T10:50:28.670Z,5.57
2019-01-19T10:52:57.795Z,6.58
2019-01-19T10:55:26.903Z,5.27
2019-01-19T10:57:55.995Z,4.93
2019-01-19T11:00:30.330Z,6.00
2019-01-19T11:03:00.660Z,6.20
2019-01-19T11:05:30.113Z,5.70
2019-01-19T11:08:03.571Z,6.10
2019-01-19T11:10:32.481Z,6.10
2019-01-19T11:13:01.585Z,5.73
2019-01-19T11:15:33.504Z,5.67
2019-01-19T11:18:02.727Z,6.33
2019-01-19T11:20:32.782Z,6.03
2019-01-19T11:23:01.918Z,5.50
2019-01-19T11:25:31.087Z,6.10
2019-01-19T11:28:02.564Z,5.47
2019-01-19T11:30:33.414Z,5.43
2019-01-19T11:33:02.495Z,4.90
2019-01-19T11:35:31.615Z,6.10
2019-01-19T11:38:00.706Z,5.63
2019-01-19T11:40:36.999Z,4.70
2019-01-19T11:43:07.446Z,5.17
2019-01-19T11:45:39.838Z,5.53
2019-01-19T11:48:15.430Z,5.40
2019-01-19T11:50:44.560Z,4.70
2019-01-19T11:53:13.858Z,3.93
2019-01-19T11:55:42.948Z,3.83
2019-01-19T11:58:12.224Z,15.93
2019-01-19T12:00:42.942Z,5.10
2019-01-19T12:03:12.053Z,2.97
2019-01-19T12:05:42.920Z,4.07
2019-01-19T12:08:20.354Z,6.07
2019-01-19T12:10:59.818Z,5.83
2019-01-19T12:13:32.470Z,4.00
2019-01-19T12:16:25.585Z,3.13
2019-01-19T12:42:36.676Z,2.33
2019-01-19T12:52:03.722Z,2.70
2019-01-19T12:55:03.686Z,2.27
2019-01-19T12:57:52.337Z,2.80
2019-01-19T13:00:26.178Z,2.33
2019-01-19T13:06:26.916Z,2.50
2019-01-19T13:09:15.317Z,2.30
2019-01-19T13:11:48.696Z,2.73
2019-01-19T13:14:25.701Z,2.67
2019-01-19T13:21:12.183Z,2.93
2019-01-19T13:27:04.338Z,2.37
2019-01-19T13:29:46.874Z,2.47
2019-01-19T13:32:37.262Z,2.60
2019-01-19T13:35:19.205Z,2.97
2019-01-19T13:38:22.956Z,3.00
2019-01-19T13:41:12.907Z,2.43
2019-01-19T13:44:13.673Z,3.13
2019-01-19T13:47:05.447Z,3.50
2019-01-19T13:50:17.008Z,3.10
2019-01-19T13:53:14.395Z,2.70
2019-01-19T13:56:33.738Z,3.63
2019-01-19T13:59:34.428Z,3.20
2019-01-19T14:02:46.502Z,3.83
2019-01-19T14:05:23.803Z,3.33
2019-01-19T14:08:14.323Z,3.00
2019-01-19T14:11:20.438Z,3.00
2019-01-19T14:14:15.047Z,3.53
2019-01-19T14:26:25.747Z,4.50
2019-01-19T14:29:19.223Z,3.07
2019-01-19T14:32:00.579Z,3.20
2019-01-19T14:34:41.883Z,2.93
2019-01-19T14:37:19.839Z,3.40
2019-01-19T14:40:05.214Z,4.20
2019-01-19T14:42:37.662Z,4.10
2019-01-19T14:45:22.504Z,3.33
2019-01-19T14:48:10.251Z,3.20
2019-01-19T14:50:59.757Z,3.47
2019-01-19T14:53:53.031Z,3.30
2019-01-19T14:57:16.981Z,2.77
2019-01-19T15:02:20.325Z,3.83
2019-01-19T15:03:54.880Z,3.77
2019-01-19T15:20:24.213Z,5.67
2019-01-19T15:23:14.064Z,4.87
2019-01-19T15:26:22.439Z,5.33
2019-01-19T15:29:45.672Z,6.10
2019-01-19T15:36:00.041Z,6.03
2019-01-19T15:39:10.879Z,5.50
2019-01-19T15:41:53.874Z,6.30
2019-01-19T15:44:31.744Z,5.80
2019-01-19T15:47:12.218Z,6.57
2019-01-19T15:49:47.234Z,6.23
2019-01-19T15:52:26.348Z,6.37
2019-01-19T15:55:12.285Z,6.83
2019-01-19T15:57:47.359Z,6.87
2019-01-19T16:00:49.734Z,5.63
2019-01-19T16:03:31.171Z,6.40
2019-01-19T16:06:24.857Z,7.10
2019-01-19T16:09:18.178Z,6.53
2019-01-19T16:11:59.452Z,8.37
2019-01-19T16:14:58.598Z,15.60
2019-01-19T16:17:33.507Z,11.23
2019-01-19T16:20:31.579Z,10.70
2019-01-19T16:23:28.066Z,8.87
2019-01-19T16:26:15.610Z,8.70
2019-01-19T16:28:58.827Z,10.00
2019-01-19T16:31:36.407Z,10.00
2019-01-19T16:34:17.707Z,10.10
2019-01-19T16:36:58.713Z,9.50
2019-01-19T16:39:46.165Z,11.33
2019-01-19T16:42:53.117Z,10.83
2019-01-19T16:45:40.019Z,11.30
2019-01-19T16:48:18.167Z,13.27
2019-01-19T16:50:59.137Z,11.77
2019-01-19T16:53:34.290Z,11.60
2019-01-19T16:56:12.216Z,12.53
2019-01-19T16:58:50.429Z,12.37
2019-01-19T17:01:28.427Z,12.63
2019-01-19T17:04:07.250Z,12.70
2019-01-19T17:06:59.743Z,13.43
2019-01-19T17:09:39.214Z,13.47
2019-01-19T17:12:11.657Z,12.93
2019-01-19T17:15:06.118Z,14.07
2019-01-19T17:17:46.086Z,15.13
2019-01-19T17:20:49.920Z,15.03
2019-01-19T17:27:30.018Z,25.23
2019-01-19T17:30:10.703Z,21.60
2019-01-19T17:32:46.014Z,17.77
2019-01-19T17:35:56.106Z,14.50
2019-01-19T17:38:54.387Z,14.40
2019-01-19T17:41:48.861Z,12.93
2019-01-19T17:44:40.743Z,12.60
2019-01-19T17:47:15.881Z,10.60
2019-01-19T17:50:01.600Z,9.07
2019-01-19T17:56:10.192Z,8.83
2019-01-19T17:59:00.565Z,8.67
2019-01-19T18:01:41.638Z,9.10
2019-01-19T18:04:28.986Z,8.60
2019-01-19T18:07:04.122Z,10.50
2019-01-19T18:09:39.034Z,13.67
2019-01-19T18:12:17.050Z,12.27
2019-01-19T18:15:12.318Z,8.93
2019-01-19T18:18:08.402Z,9.07
2019-01-19T18:20:49.423Z,8.23
2019-01-19T18:23:33.454Z,9.10
2019-01-19T18:26:11.594Z,9.43
2019-01-19T18:28:57.075Z,9.87
2019-01-19T18:31:56.764Z,10.40
2019-01-19T18:34:32.156Z,10.90
2019-01-19T18:37:04.527Z,11.10
2019-01-19T18:39:54.604Z,13.80
2019-01-19T18:42:31.500Z,10.33
2019-01-19T18:45:24.888Z,9.93
2019-01-19T18:47:59.898Z,11.07
2019-01-19T18:50:47.320Z,9.63
2019-01-19T18:53:30.789Z,7.67
2019-01-19T18:56:03.143Z,7.67
2019-01-19T18:58:57.669Z,6.63
2019-01-19T19:01:49.435Z,7.53
2019-01-19T19:04:44.770Z,7.63
2019-01-19T19:07:29.701Z,7.03
2019-01-19T19:10:20.358Z,7.50
2019-01-19T19:12:59.765Z,6.87
2019-01-19T19:15:35.939Z,7.83
2019-01-19T19:18:23.294Z,7.10
2019-01-19T19:21:04.344Z,8.97
2019-01-19T19:23:39.451Z,10.63
2019-01-19T19:26:28.138Z,27.30
2019-01-19T19:29:05.496Z,13.93
2019-01-19T19:31:58.899Z,20.87
2019-01-19T19:34:40.296Z,15.63
2019-01-19T19:37:15.577Z,12.00
2019-01-19T19:39:50.508Z,9.63
2019-01-19T19:42:29.122Z,9.50
2019-01-19T19:45:12.979Z,7.77
2019-01-19T19:48:00.241Z,9.03
2019-01-19T19:50:44.347Z,7.90
2019-01-19T19:53:13.639Z,8.40
2019-01-19T19:55:41.835Z,9.17
2019-01-19T19:58:10.955Z,9.07
2019-01-19T20:00:40.135Z,9.93
2019-01-19T20:03:09.327Z,9.57
2019-01-19T20:05:38.438Z,8.17
2019-01-19T20:08:07.556Z,9.17
2019-01-19T20:10:36.690Z,8.37
2019-01-19T20:13:05.887Z,8.27
2019-01-19T20:15:35.084Z,9.27
2019-01-19T20:18:08.697Z,8.60
2019-01-19T20:20:40.025Z,9.87
2019-01-19T20:23:09.701Z,9.73
2019-01-19T20:25:39.928Z,10.03
2019-01-19T20:28:09.199Z,8.83
2019-01-19T20:30:39.384Z,8.60
2019-01-19T20:33:08.560Z,8.63
2019-01-19T20:35:37.790Z,8.57
2019-01-19T20:38:08.152Z,8.97
2019-01-19T20:40:37.270Z,8.63
2019-01-19T20:43:08.079Z,9.03
2019-01-19T20:45:38.821Z,9.53
2019-01-19T20:48:09.403Z,9.83
2019-01-19T20:50:38.866Z,9.13
2019-01-19T20:53:09.095Z,10.13
2019-01-19T20:55:39.299Z,11.60
2019-01-19T20:58:08.429Z,10.17
2019-01-19T21:00:37.542Z,10.70
2019-01-19T21:03:08.066Z,10.20
2019-01-19T21:05:37.276Z,9.90
2019-01-19T21:08:08.395Z,10.73
2019-01-19T21:10:37.614Z,10.07
2019-01-19T21:13:06.724Z,10.20
2019-01-19T21:15:35.966Z,10.57
2019-01-19T21:18:05.143Z,9.87
2019-01-19T21:20:34.516Z,9.33
2019-01-19T21:23:04.786Z,10.83
2019-01-19T21:25:35.091Z,10.93
2019-01-19T21:28:06.198Z,9.50
2019-01-19T21:30:37.994Z,9.87
2019-01-19T21:33:07.388Z,12.67
2019-01-19T21:35:36.503Z,10.27
2019-01-19T21:38:05.858Z,8.83
2019-01-19T21:40:39.207Z,10.27
2019-01-19T21:43:08.491Z,10.07
2019-01-19T21:45:37.719Z,10.27
2019-01-19T21:48:10.549Z,10.80
2019-01-19T21:50:39.660Z,9.77
2019-01-19T21:53:08.766Z,11.03
2019-01-19T21:55:38.005Z,10.37
2019-01-19T21:58:07.134Z,10.60
2019-01-19T22:00:36.260Z,10.77
2019-01-19T22:03:05.386Z,10.53
2019-01-19T22:05:34.612Z,10.73
2019-01-19T22:08:03.855Z,11.67
2019-01-19T22:10:32.987Z,11.13
2019-01-19T22:13:02.105Z,11.27
2019-01-19T22:15:31.262Z,10.90
2019-01-19T22:18:01.455Z,11.00
2019-01-19T22:20:30.672Z,11.90
2019-01-19T22:22:59.817Z,11.70
2019-01-19T22:25:28.979Z,12.23
2019-01-19T22:27:58.108Z,11.67
2019-01-19T22:30:27.228Z,11.93
2019-01-19T22:32:56.600Z,12.73
2019-01-19T22:35:27.417Z,11.90
2019-01-19T22:37:56.511Z,12.07
2019-01-19T22:40:25.690Z,11.90
2019-01-19T22:42:55.225Z,12.77
2019-01-19T22:45:24.396Z,12.83
2019-01-19T22:47:55.133Z,12.60
2019-01-19T22:50:24.285Z,11.70
2019-01-19T22:52:53.387Z,11.87
2019-01-19T22:55:22.505Z,11.70
2019-01-19T22:57:51.623Z,11.60
2019-01-19T23:00:57.512Z,12.97
2019-01-19T23:03:28.884Z,11.03
2019-01-19T23:05:59.000Z,13.07
2019-01-19T23:08:28.102Z,12.93
2019-01-19T23:11:01.159Z,11.87
2019-01-19T23:13:28.041Z,12.90
2019-01-19T23:15:57.544Z,13.00
2019-01-19T23:18:26.643Z,12.90
2019-01-19T23:20:55.760Z,13.43
2019-01-19T23:23:24.872Z,13.03
2019-01-19T23:25:54.054Z,11.90
2019-01-19T23:28:24.822Z,12.77
2019-01-19T23:30:55.547Z,12.53
2019-01-19T23:33:24.663Z,11.50
2019-01-19T23:35:53.825Z,13.17
2019-01-19T23:38:23.090Z,12.60
2019-01-19T23:40:52.275Z,13.13
2019-01-19T23:43:21.415Z,13.07
2019-01-19T23:45:50.583Z,13.87
2019-01-19T23:51:33.719Z,13.20
2019-01-19T23:54:02.827Z,12.50
2019-01-19T23:56:31.947Z,11.33
2019-01-19T23:59:01.062Z,12.23
